Time;durP1;ratioP1;P1;durP2;ratioP2;P2;SDS_P1;SDS_P2;PMS_P1;PMS_P2;Temp;Humidity;BMP_temperature;BMP_pressure;BME280_temperature;BME280_humidity;BME280_pressure;Samples;Min_cycle;Max_cycle;Signal;HPM_P1;HPM_P2
2022/09/27 00:01:40;;;;;;;4.57;1.58;;;17.70;58.20;;;;;;6174510;28;20031;-74
2022/09/27 00:04:50;;;;;;;4.55;1.38;;;17.70;58.20;;;;;;6147990;28;20114;-75
2022/09/27 00:07:56;;;;;;;4.22;1.58;;;17.60;58.30;;;;;;6132348;28;20054;-73
2022/09/27 00:11:08;;;;;;;2.17;1.40;;;17.60;58.50;;;;;;6147852;28;20063;-74
2022/09/27 00:14:15;;;;;;;3.15;1.10;;;17.60;58.80;;;;;;6148799;28;20043;-74
2022/09/27 00:17:20;;;;;;;4.53;1.42;;;17.50;58.90;;;;;;6150475;28;20038;-74
2022/09/27 00:20:26;;;;;;;2.65;1.38;;;17.50;59.10;;;;;;6150556;28;20113;-74
2022/09/27 00:23:29;;;;;;;2.95;1.30;;;17.50;59.40;;;;;;6150899;28;20039;-72
2022/09/27 00:26:31;;;;;;;2.40;1.30;;;17.40;59.60;;;;;;6140059;28;20039;-74
2022/09/27 00:29:33;;;;;;;3.33;1.63;;;17.40;60.50;;;;;;6151995;28;20354;-75
2022/09/27 00:32:36;;;;;;;2.40;1.25;;;17.40;59.90;;;;;;6152601;28;20047;-73
2022/09/27 00:35:39;;;;;;;3.08;1.45;;;17.40;60.00;;;;;;6149155;28;20039;-74
2022/09/27 00:38:41;;;;;;;1.95;1.30;;;17.40;60.30;;;;;;6150264;28;20436;-73
2022/09/27 00:41:44;;;;;;;2.92;1.40;;;17.50;60.40;;;;;;6150958;28;20035;-73
2022/09/27 00:45:04;;;;;;;6.00;1.50;;;17.40;60.30;;;;;;6141018;28;20388;-73
2022/09/27 00:48:14;;;;;;;2.65;1.40;;;17.50;60.50;;;;;;6128766;28;20046;-73
2022/09/27 00:51:19;;;;;;;2.03;1.23;;;17.50;60.70;;;;;;6148524;28;20031;-74
2022/09/27 00:54:24;;;;;;;3.30;1.15;;;17.50;60.70;;;;;;6136372;28;20457;-74
2022/09/27 00:57:27;;;;;;;5.18;1.42;;;17.50;60.70;;;;;;6158063;28;20039;-74
2022/09/27 01:00:31;;;;;;;1.25;1.08;;;17.40;60.70;;;;;;6149757;28;20039;-73
2022/09/27 01:04:00;;;;;;;1.83;1.15;;;17.40;60.60;;;;;;6158020;28;20028;-73
2022/09/27 01:07:03;;;;;;;6.73;1.43;;;17.30;60.70;;;;;;6146492;28;20537;-73
2022/09/27 01:10:07;;;;;;;2.35;1.23;;;17.30;60.90;;;;;;6147669;28;20031;-73
2022/09/27 01:13:34;;;;;;;6.68;1.45;;;17.30;61.20;;;;;;6149256;28;20368;-73
2022/09/27 01:17:06;;;;;;;2.17;1.60;;;17.20;61.50;;;;;;6141714;28;20027;-73
2022/09/27 01:20:35;;;;;;;2.40;1.33;;;17.20;61.70;;;;;;6127798;28;20047;-73
2022/09/27 01:24:01;;;;;;;2.63;1.52;;;17.20;61.90;;;;;;6158831;28;20038;-73
2022/09/27 01:27:19;;;;;;;5.63;2.08;;;17.20;62.00;;;;;;6168709;28;20035;-73
2022/09/27 01:30:22;;;;;;;3.35;1.92;;;17.20;62.00;;;;;;6149687;28;20102;-72
2022/09/27 01:33:36;;;;;;;5.95;2.10;;;17.20;61.90;;;;;;6142480;28;20061;-73
2022/09/27 01:37:03;;;;;;;6.38;2.15;;;17.20;61.90;;;;;;6157121;28;20412;-73
2022/09/27 01:40:11;;;;;;;2.72;1.80;;;17.10;61.80;;;;;;6146748;28;20110;-73
2022/09/27 01:43:42;;;;;;;6.15;2.40;;;17.10;61.60;;;;;;6153212;28;20461;-73
2022/09/27 01:46:54;;;;;;;3.63;2.00;;;17.10;61.90;;;;;;6156861;28;20368;-73
2022/09/27 01:50:45;;;;;;;6.13;1.90;;;17.00;62.00;;;;;;6132770;28;20046;-73
2022/09/27 01:53:52;;;;;;;4.43;2.05;;;17.00;62.60;;;;;;6145476;28;20035;-72
2022/09/27 01:57:38;;;;;;;3.47;2.20;;;16.90;62.80;;;;;;6167380;28;20097;-72
2022/09/27 02:00:55;;;;;;;4.53;2.53;;;16.90;62.80;;;;;;6143494;28;20126;-74
2022/09/27 02:04:07;;;;;;;3.65;1.55;;;16.90;63.10;;;;;;6157659;28;20066;-73
2022/09/27 02:07:51;;;;;;;2.00;1.33;;;16.90;63.20;;;;;;6132975;28;20066;-74
2022/09/27 02:10:58;;;;;;;1.85;1.35;;;16.90;62.80;;;;;;6145832;28;20038;-73
2022/09/27 02:14:25;;;;;;;1.70;1.00;;;17.00;62.70;;;;;;6143650;28;20479;-73
2022/09/27 02:17:56;;;;;;;1.95;1.20;;;17.00;62.40;;;;;;6143356;28;20053;-73
2022/09/27 02:21:05;;;;;;;2.65;1.02;;;17.00;62.20;;;;;;6133624;28;20472;-74
2022/09/27 02:24:19;;;;;;;2.38;1.23;;;17.00;62.00;;;;;;6135847;28;20035;-73
2022/09/27 02:27:44;;;;;;;2.42;1.60;;;17.00;61.90;;;;;;6137480;28;20131;-75
2022/09/27 02:30:51;;;;;;;2.20;1.52;;;17.00;61.80;;;;;;6147369;28;20027;-75
2022/09/27 02:34:05;;;;;;;3.22;1.40;;;17.00;61.90;;;;;;6165264;28;20373;-74
2022/09/27 02:37:08;;;;;;;4.93;1.67;;;17.00;61.90;;;;;;6163537;28;20452;-74
2022/09/27 02:40:11;;;;;;;3.15;1.75;;;16.90;62.00;;;;;;6163995;28;20043;-74
2022/09/27 02:43:17;;;;;;;3.83;1.80;;;16.90;62.50;;;;;;6124822;28;20369;-74
2022/09/27 02:46:38;;;;;;;3.88;1.85;;;16.80;63.10;;;;;;6134178;28;20368;-74
2022/09/27 02:50:06;;;;;;;4.03;2.03;;;16.70;63.80;;;;;;6132521;28;20094;-73
2022/09/27 02:53:58;;;;;;;5.90;1.85;;;16.60;64.80;;;;;;6169163;28;20046;-73
2022/09/27 02:57:36;;;;;;;2.53;1.33;;;16.40;65.20;;;;;;6166520;28;20047;-74
2022/09/27 03:00:56;;;;;;;1.95;1.02;;;16.30;65.60;;;;;;6132660;28;20346;-73
2022/09/27 03:04:34;;;;;;;2.17;1.30;;;16.20;65.80;;;;;;6150081;28;20040;-73
2022/09/27 03:07:38;;;;;;;2.28;1.40;;;16.10;66.70;;;;;;6151232;28;20472;-74
2022/09/27 03:10:41;;;;;;;0.85;0.70;;;16.10;66.90;;;;;;6132610;28;20059;-73
2022/09/27 03:13:46;;;;;;;1.38;1.00;;;16.00;67.10;;;;;;6147659;28;20123;-74
2022/09/27 03:16:51;;;;;;;3.67;1.08;;;16.00;67.10;;;;;;6140962;28;20027;-74
2022/09/27 03:20:21;;;;;;;1.50;1.20;;;16.00;67.20;;;;;;6146340;28;20741;-73
2022/09/27 03:23:29;;;;;;;1.73;1.00;;;16.00;67.40;;;;;;6131327;28;20043;-73
2022/09/27 03:26:31;;;;;;;1.13;0.70;;;15.90;67.60;;;;;;6145665;28;20043;-74
2022/09/27 03:29:32;;;;;;;0.60;0.60;;;15.90;67.80;;;;;;6145444;28;20126;-73
2022/09/27 03:32:46;;;;;;;1.48;1.05;;;15.90;67.90;;;;;;6155323;28;20039;-73
2022/09/27 03:36:18;;;;;;;2.60;0.77;;;15.80;67.90;;;;;;6163993;28;20101;-73
2022/09/27 03:39:30;;;;;;;3.03;1.30;;;15.80;67.90;;;;;;6145235;28;20074;-74
2022/09/27 03:42:35;;;;;;;2.25;0.80;;;15.80;67.90;;;;;;6149451;28;20114;-73
2022/09/27 03:45:37;;;;;;;1.30;0.85;;;15.90;67.80;;;;;;6131904;28;20031;-73
2022/09/27 03:48:48;;;;;;;9.15;0.88;;;15.90;67.60;;;;;;6127725;28;20031;-73
2022/09/27 03:52:01;;;;;;;6.65;1.00;;;15.90;67.40;;;;;;6149537;28;20486;-74
2022/09/27 03:55:10;;;;;;;4.10;0.98;;;16.00;67.20;;;;;;6129000;28;20051;-74
2022/09/27 03:58:19;;;;;;;6.00;1.20;;;16.00;66.90;;;;;;6133254;28;20043;-74
2022/09/27 04:01:27;;;;;;;4.85;0.90;;;16.10;66.70;;;;;;6166170;28;20035;-73
2022/09/27 04:04:49;;;;;;;4.85;0.95;;;16.10;66.30;;;;;;6152771;28;20031;-74
2022/09/27 04:07:55;;;;;;;3.70;0.73;;;16.10;65.90;;;;;;6147527;28;20031;-74
2022/09/27 04:11:02;;;;;;;1.50;0.60;;;16.20;65.70;;;;;;6147859;28;20044;-73
2022/09/27 04:14:07;;;;;;;7.97;1.42;;;16.20;65.30;;;;;;6150399;28;20421;-73
2022/09/27 04:17:19;;;;;;;3.50;1.10;;;16.20;65.20;;;;;;6145114;28;20038;-74
2022/09/27 04:20:47;;;;;;;1.92;0.98;;;16.20;65.10;;;;;;6139554;28;20042;-73
2022/09/27 04:23:51;;;;;;;6.05;1.23;;;16.30;65.00;;;;;;6148399;28;20027;-74
2022/09/27 04:26:55;;;;;;;2.53;1.10;;;16.30;65.10;;;;;;6147044;28;20045;-74
2022/09/27 04:30:02;;;;;;;2.15;1.02;;;16.40;65.10;;;;;;6143923;28;20667;-74
2022/09/27 04:33:31;;;;;;;2.88;0.98;;;16.40;65.20;;;;;;6139811;28;20139;-74
2022/09/27 04:36:55;;;;;;;1.38;0.90;;;16.50;65.20;;;;;;6133266;29;20381;-74
2022/09/27 04:40:05;;;;;;;8.05;1.30;;;16.50;65.20;;;;;;6107366;29;20138;-74
2022/09/27 04:43:08;;;;;;;2.47;1.15;;;16.50;65.20;;;;;;6119586;29;20049;-74
2022/09/27 04:46:10;;;;;;;1.35;0.98;;;16.50;65.00;;;;;;6097484;29;20098;-73
2022/09/27 04:49:11;;;;;;;6.07;1.20;;;16.50;64.90;;;;;;6119577;29;20553;-73
2022/09/27 04:52:14;;;;;;;1.13;0.90;;;16.60;64.90;;;;;;6107620;29;20035;-74
2022/09/27 04:55:15;;;;;;;2.42;0.88;;;16.60;64.80;;;;;;6111869;29;20039;-72
2022/09/27 04:58:21;;;;;;;2.05;1.08;;;16.70;64.70;;;;;;6101714;29;20050;-73
2022/09/27 05:01:26;;;;;;;4.40;1.00;;;16.70;64.60;;;;;;6109452;29;20074;-72
2022/09/27 05:05:05;;;;;;;;;;;16.70;64.50;;;;;;5983350;29;20050;-74
2022/09/27 05:08:11;;;;;;;2.03;1.00;;;16.70;64.30;;;;;;5968077;29;19936;-74
2022/09/27 05:11:32;;;;;;;5.43;1.13;;;16.70;64.10;;;;;;5892492;30;20061;-74
2022/09/27 05:14:54;;;;;;;4.95;1.30;;;16.80;64.30;;;;;;5941722;29;20047;-74
2022/09/27 05:18:18;;;;;;;2.33;1.48;;;16.80;64.40;;;;;;5937269;29;20051;-74
2022/09/27 05:21:49;;;;;;;2.58;1.30;;;16.80;64.50;;;;;;5928281;29;20047;-74
2022/09/27 05:24:55;;;;;;;3.15;1.27;;;16.80;64.60;;;;;;5943365;29;20531;-74
2022/09/27 05:28:00;;;;;;;6.72;1.60;;;16.80;64.70;;;;;;5954539;29;20050;-74
2022/09/27 05:31:05;;;;;;;1.38;1.13;;;16.80;64.90;;;;;;5912080;29;20480;-74
2022/09/27 05:34:10;;;;;;;4.10;1.50;;;16.80;64.90;;;;;;5924318;29;20490;-73
2022/09/27 05:37:19;;;;;;;5.90;1.67;;;16.80;65.00;;;;;;5934449;29;20065;-73
2022/09/27 05:40:24;;;;;;;4.55;1.95;;;16.80;65.10;;;;;;6018294;29;20522;-72
2022/09/27 05:43:31;;;;;;;;;;;16.80;65.10;;;;;;6033578;29;20033;-73
2022/09/27 05:46:38;;;;;;;2.38;1.67;;;16.80;65.20;;;;;;6023491;29;20269;-73
2022/09/27 05:49:41;;;;;;;4.03;2.05;;;16.80;65.10;;;;;;6151951;28;20040;-72
2022/09/27 05:52:45;;;;;;;3.35;1.60;;;16.80;65.30;;;;;;6131451;28;20472;-73
2022/09/27 05:55:48;;;;;;;7.03;2.33;;;16.80;65.40;;;;;;6145510;28;20035;-74
2022/09/27 05:58:57;;;;;;;4.40;2.17;;;16.70;65.50;;;;;;6141681;28;20054;-74
2022/09/27 06:02:04;;;;;;;6.00;2.20;;;16.80;65.60;;;;;;6154307;28;20059;-74
2022/09/27 06:05:38;;;;;;;5.38;2.28;;;16.80;65.60;;;;;;6072762;29;20037;-74
2022/09/27 06:09:00;;;;;;;5.65;2.15;;;16.80;65.50;;;;;;6072242;29;20131;-74
2022/09/27 06:12:01;;;;;;;5.53;1.38;;;16.70;65.30;;;;;;6054798;29;20045;-74
2022/09/27 06:15:03;;;;;;;10.07;1.38;;;16.70;65.20;;;;;;6069572;29;20068;-75
2022/09/27 06:18:16;;;;;;;6.35;1.00;;;16.70;64.70;;;;;;6056216;29;20045;-75
2022/09/27 06:21:23;;;;;;;6.22;1.10;;;16.80;64.30;;;;;;6073868;29;20040;-75
2022/09/27 06:24:33;;;;;;;4.43;1.10;;;16.80;64.10;;;;;;6055672;29;20508;-75
2022/09/27 06:27:44;;;;;;;5.45;1.02;;;16.70;64.10;;;;;;6068824;29;20048;-74
2022/09/27 06:30:56;;;;;;;5.72;0.90;;;16.60;64.40;;;;;;6061572;29;20132;-74
2022/09/27 06:34:07;;;;;;;3.03;1.27;;;16.60;64.70;;;;;;6074113;29;20044;-74
2022/09/27 06:37:11;;;;;;;3.65;1.02;;;16.60;64.80;;;;;;6073421;29;20041;-74
2022/09/27 06:40:13;;;;;;;6.00;1.48;;;16.60;64.70;;;;;;6073713;29;20045;-75
2022/09/27 06:43:48;;;;;;;6.38;1.10;;;16.60;64.50;;;;;;6061432;29;20121;-75
2022/09/27 06:47:25;;;;;;;7.13;1.13;;;16.60;64.40;;;;;;6060370;29;20123;-73
2022/09/27 06:50:47;;;;;;;3.72;1.17;;;16.60;64.40;;;;;;6071041;29;20534;-74
2022/09/27 06:53:50;;;;;;;4.35;1.27;;;16.70;64.20;;;;;;6071386;29;20048;-75
2022/09/27 06:56:51;;;;;;;4.75;1.80;;;16.70;64.00;;;;;;6054662;29;20033;-76
2022/09/27 07:03:40;;;;;;;9.98;2.47;;;16.80;64.10;;;;;;5960219;29;20486;-75
2022/09/27 07:06:54;;;;;;;4.38;2.25;;;16.80;64.10;;;;;;5944919;29;20222;-75
2022/09/27 07:09:58;;;;;;;5.15;2.13;;;16.90;64.20;;;;;;5974769;29;20106;-74
2022/09/27 07:13:06;;;;;;;7.43;2.08;;;17.00;64.10;;;;;;5980013;29;20137;-74
2022/09/27 07:16:13;;;;;;;6.60;1.92;;;17.10;64.10;;;;;;5980899;29;20104;-75
2022/09/27 07:19:17;;;;;;;13.68;2.47;;;17.20;63.80;;;;;;6020067;29;20051;-74
2022/09/27 07:22:20;;;;;;;6.35;2.20;;;17.40;63.70;;;;;;6050681;29;20430;-74
2022/09/27 07:25:28;;;;;;;6.75;2.53;;;17.50;63.40;;;;;;6026817;29;20041;-74
2022/09/27 07:28:30;;;;;;;10.07;2.85;;;17.60;63.20;;;;;;6012317;29;20061;-75
2022/09/27 07:31:32;;;;;;;6.45;2.58;;;17.70;63.20;;;;;;6002258;29;20037;-75
2022/09/27 07:34:33;;;;;;;5.15;2.15;;;17.80;63.00;;;;;;6011914;29;20068;-75
2022/09/27 07:37:37;;;;;;;4.25;1.67;;;17.90;62.90;;;;;;6003313;29;20495;-74
2022/09/27 07:40:40;;;;;;;10.20;2.08;;;18.00;62.60;;;;;;6090599;28;21024;-75
2022/09/27 07:43:44;;;;;;;7.10;1.90;;;18.10;62.50;;;;;;6132898;28;20118;-74
2022/09/27 07:46:46;;;;;;;1.45;1.13;;;18.10;62.10;;;;;;6137826;28;20090;-75
2022/09/27 07:50:04;;;;;;;2.08;1.27;;;18.20;61.80;;;;;;6133798;28;20433;-74
2022/09/27 07:53:15;;;;;;;5.20;1.05;;;18.20;61.20;;;;;;6147539;28;20062;-75
2022/09/27 07:56:25;;;;;;;3.50;1.05;;;18.20;60.80;;;;;;6146442;28;20059;-75
2022/09/27 07:59:26;;;;;;;16.10;1.50;;;18.20;60.70;;;;;;6153665;28;20039;-75
2022/09/27 08:02:30;;;;;;;15.98;1.13;;;18.30;60.40;;;;;;6160185;28;20413;-76
2022/09/27 08:05:32;;;;;;;9.38;1.13;;;18.30;60.00;;;;;;6149154;28;20466;-74
2022/09/27 08:08:34;;;;;;;3.38;1.05;;;18.30;59.90;;;;;;6132636;28;20027;-74
2022/09/27 08:11:38;;;;;;;7.40;1.10;;;18.30;59.70;;;;;;6132164;28;20054;-74
2022/09/27 08:14:42;;;;;;;2.92;1.30;;;18.30;59.40;;;;;;6158259;28;20062;-74
2022/09/27 08:17:44;;;;;;;5.90;0.93;;;18.40;59.40;;;;;;6155271;28;20035;-74
2022/09/27 08:20:56;;;;;;;2.92;1.00;;;18.40;59.00;;;;;;6170517;28;20039;-74
2022/09/27 08:24:09;;;;;;;6.40;1.40;;;18.50;58.80;;;;;;6169359;28;20151;-75
2022/09/27 08:27:28;;;;;;;3.92;1.80;;;18.50;58.50;;;;;;6147315;28;20028;-74
2022/09/27 08:30:35;;;;;;;5.63;2.95;;;18.60;58.30;;;;;;6167110;28;20032;-75
2022/09/27 08:33:36;;;;;;;7.22;2.70;;;18.70;58.30;;;;;;6183208;28;20035;-74
2022/09/27 08:36:39;;;;;;;11.98;3.22;;;18.80;58.30;;;;;;6166995;28;20038;-74
2022/09/27 08:39:41;;;;;;;9.23;2.70;;;18.90;58.30;;;;;;6133844;28;20043;-73
2022/09/27 08:42:59;;;;;;;9.23;1.90;;;19.00;58.10;;;;;;6147504;28;20049;-75
2022/09/27 08:46:06;;;;;;;9.73;2.13;;;19.10;57.90;;;;;;6148082;28;20040;-74
2022/09/27 08:49:16;;;;;;;12.85;1.95;;;19.20;57.40;;;;;;6130681;28;20046;-74
2022/09/27 08:52:42;;;;;;;6.95;1.00;;;19.20;57.20;;;;;;6148314;28;20133;-75
2022/09/27 08:55:52;;;;;;;11.75;1.42;;;19.20;57.00;;;;;;6146335;28;20032;-74
2022/09/27 08:59:22;;;;;;;5.57;1.25;;;19.20;56.80;;;;;;6129787;28;20051;-74
2022/09/27 09:02:26;;;;;;;12.55;1.77;;;19.10;56.60;;;;;;6139668;28;20107;-75
2022/09/27 09:05:33;;;;;;;4.60;2.03;;;19.10;56.50;;;;;;6152395;28;20625;-74
2022/09/27 09:09:10;;;;;;;4.03;2.00;;;19.10;56.40;;;;;;6143166;28;20023;-74
2022/09/27 09:12:46;;;;;;;5.20;1.67;;;19.20;57.20;;;;;;6146964;28;20054;-74
2022/09/27 09:16:12;;;;;;;11.13;1.35;;;19.30;56.10;;;;;;6129276;28;20043;-76
2022/09/27 09:19:36;;;;;;;5.47;1.42;;;19.40;55.50;;;;;;6079185;29;20040;-75
2022/09/27 09:23:18;;;;;;;6.90;1.10;;;19.40;54.90;;;;;;6092861;29;20112;-76
2022/09/27 09:26:22;;;;;;;5.13;0.82;;;19.50;54.60;;;;;;6091728;29;20051;-74
2022/09/27 09:29:56;;;;;;;10.10;1.27;;;19.60;53.70;;;;;;6078172;29;20055;-74
2022/09/27 09:33:04;;;;;;;5.15;1.15;;;19.60;53.30;;;;;;6010974;29;20038;-75
2022/09/27 09:36:14;;;;;;;2.58;0.88;;;19.70;53.30;;;;;;6026188;29;20037;-75
2022/09/27 09:39:19;;;;;;;3.10;0.82;;;19.60;53.20;;;;;;6026986;29;20101;-75
2022/09/27 09:42:42;;;;;;;11.15;1.20;;;19.50;53.20;;;;;;6010879;29;20650;-74
2022/09/27 09:46:01;;;;;;;2.80;0.75;;;19.30;53.40;;;;;;6012339;29;20162;-74
2022/09/27 09:49:20;;;;;;;6.40;0.98;;;19.20;53.80;;;;;;6027740;29;20120;-74
2022/09/27 09:52:39;;;;;;;6.85;1.02;;;19.00;53.90;;;;;;6025599;29;20102;-75
2022/09/27 09:55:54;;;;;;;4.20;1.25;;;18.80;54.40;;;;;;6032659;29;20444;-74
2022/09/27 09:59:01;;;;;;;4.00;1.42;;;18.70;55.10;;;;;;6041341;29;20750;-75
2022/09/27 10:02:22;;;;;;;8.73;1.63;;;18.60;55.70;;;;;;6066745;29;20064;-73
2022/09/27 10:05:28;;;;;;;11.38;1.23;;;18.60;56.20;;;;;;6050509;29;20052;-74
2022/09/27 10:08:38;;;;;;;1.83;1.20;;;18.80;56.30;;;;;;6065798;28;20044;-75
2022/09/27 10:12:00;;;;;;;2.33;0.85;;;19.10;56.10;;;;;;6141816;28;20047;-75
2022/09/27 10:15:06;;;;;;;6.15;1.25;;;19.30;55.40;;;;;;6160401;28;20425;-74
2022/09/27 10:18:15;;;;;;;2.50;1.13;;;19.50;54.80;;;;;;6166253;28;20456;-75
2022/09/27 10:21:27;;;;;;;4.20;1.80;;;19.70;54.30;;;;;;6146396;28;20122;-75
2022/09/27 10:25:02;;;;;;;8.15;1.10;;;20.20;53.80;;;;;;6128484;28;20059;-75
2022/09/27 10:28:41;;;;;;;6.95;1.13;;;20.70;53.10;;;;;;6142205;28;20376;-75
2022/09/27 10:31:47;;;;;;;6.07;1.10;;;21.00;52.20;;;;;;6144444;28;20043;-74
2022/09/27 10:35:16;;;;;;;5.78;1.08;;;21.10;51.30;;;;;;6156705;28;20027;-75
2022/09/27 10:38:23;;;;;;;6.57;1.10;;;21.00;50.50;;;;;;6147349;28;20039;-74
2022/09/27 10:41:40;;;;;;;7.22;0.90;;;20.90;50.30;;;;;;6132185;28;20035;-75
2022/09/27 10:44:49;;;;;;;10.48;1.50;;;20.80;50.30;;;;;;6149023;28;20031;-76
2022/09/27 10:48:06;;;;;;;7.13;1.40;;;20.70;50.10;;;;;;6173835;28;20483;-75
2022/09/27 10:51:34;;;;;;;8.57;1.30;;;20.50;49.70;;;;;;6172323;28;20530;-76
2022/09/27 10:54:53;;;;;;;9.73;1.08;;;20.30;49.80;;;;;;6170126;28;20046;-75
2022/09/27 10:57:58;;;;;;;4.53;1.38;;;20.20;50.10;;;;;;6153454;28;20027;-75
2022/09/27 11:01:11;;;;;;;3.42;1.13;;;20.10;50.40;;;;;;6147201;28;20031;-74
2022/09/27 11:04:39;;;;;;;3.70;1.30;;;20.00;50.70;;;;;;6147597;28;20484;-75
2022/09/27 11:07:58;;;;;;;4.00;1.15;;;20.00;50.50;;;;;;6147142;28;20042;-74
2022/09/27 11:11:30;;;;;;;11.48;1.13;;;20.20;50.00;;;;;;6144753;28;20081;-74
2022/09/27 11:14:37;;;;;;;2.88;0.90;;;20.30;49.40;;;;;;6148845;28;20063;-75
2022/09/27 11:17:46;;;;;;;6.85;1.38;;;20.30;49.40;;;;;;6148063;28;20492;-75
2022/09/27 11:21:04;;;;;;;4.10;1.35;;;20.40;49.50;;;;;;6148243;28;20043;-75
2022/09/27 11:24:30;;;;;;;7.75;1.30;;;20.70;49.10;;;;;;6148879;28;20047;-74
2022/09/27 11:27:48;;;;;;;2.03;0.68;;;21.00;48.80;;;;;;6153427;28;20434;-75
2022/09/27 11:31:29;;;;;;;1.95;0.80;;;21.50;48.10;;;;;;6140854;28;20032;-74
2022/09/27 11:35:01;;;;;;;2.08;0.73;;;21.70;47.20;;;;;;6129151;28;20465;-75
2022/09/27 11:38:22;;;;;;;5.97;1.30;;;21.70;46.90;;;;;;6130480;28;20046;-75
2022/09/27 11:41:39;;;;;;;2.17;0.77;;;21.60;46.70;;;;;;6131108;28;20476;-75
2022/09/27 11:44:47;;;;;;;4.25;0.80;;;21.40;46.50;;;;;;6147564;28;20042;-75
2022/09/27 11:48:02;;;;;;;3.63;1.10;;;21.20;46.60;;;;;;6145910;28;20126;-75
2022/09/27 11:51:37;;;;;;;2.35;0.88;;;21.00;46.80;;;;;;6126376;28;20035;-75
2022/09/27 11:55:22;;;;;;;2.80;0.93;;;20.80;47.20;;;;;;6164832;28;20046;-75
2022/09/27 11:58:58;;;;;;;1.77;1.17;;;20.70;47.30;;;;;;6145772;28;20483;-75
2022/09/27 12:02:19;;;;;;;6.78;0.82;;;20.60;47.70;;;;;;6127136;28;20046;-74
2022/09/27 12:05:56;;;;;;;4.25;1.10;;;20.90;47.90;;;;;;6144313;28;20046;-74
2022/09/27 12:09:02;;;;;;;1.63;0.60;;;21.60;47.30;;;;;;6066921;29;20478;-74
2022/09/27 12:12:17;;;;;;;4.80;0.82;;;22.50;46.30;;;;;;6081896;29;20451;-74
2022/09/27 12:15:33;;;;;;;15.35;1.17;;;22.80;44.50;;;;;;6079529;29;20043;-74
2022/09/27 12:18:38;;;;;;;4.10;1.25;;;23.00;43.70;;;;;;6078122;29;20087;-74
2022/09/27 12:21:49;;;;;;;1.98;0.90;;;22.90;43.30;;;;;;6091558;29;20521;-74
2022/09/27 12:24:51;;;;;;;3.53;1.40;;;22.80;43.30;;;;;;6077573;29;20047;-74
2022/09/27 12:28:39;;;;;;;1.55;0.52;;;22.80;43.10;;;;;;6094233;29;20427;-74
2022/09/27 12:32:00;;;;;;;4.22;1.23;;;22.70;42.70;;;;;;6063777;29;20043;-74
2022/09/27 12:35:25;;;;;;;3.20;0.50;;;22.70;42.70;;;;;;6079035;29;20067;-74
2022/09/27 12:38:41;;;;;;;5.65;0.65;;;22.50;42.90;;;;;;6079361;29;20067;-74
2022/09/27 12:41:51;;;;;;;2.22;0.60;;;22.40;43.00;;;;;;6089744;28;20031;-75
2022/09/27 12:45:04;;;;;;;2.00;0.70;;;22.30;43.00;;;;;;6146355;28;20038;-74
2022/09/27 12:48:25;;;;;;;0.98;0.57;;;22.20;43.20;;;;;;6131028;28;20133;-73
2022/09/27 12:51:38;;;;;;;6.70;0.80;;;22.10;43.40;;;;;;6169371;28;20062;-74
2022/09/27 12:55:15;;;;;;;4.10;0.77;;;22.10;43.40;;;;;;6148561;28;20050;-75
2022/09/27 12:58:55;;;;;;;4.13;0.93;;;22.00;43.20;;;;;;6145956;28;20490;-75
2022/09/27 13:02:17;;;;;;;3.05;0.82;;;21.80;43.30;;;;;;6058511;29;20336;-74
2022/09/27 13:05:49;;;;;;;3.50;0.95;;;21.60;43.20;;;;;;6048475;29;20108;-74
2022/09/27 13:09:06;;;;;;;8.40;1.30;;;21.30;43.40;;;;;;6078203;29;20046;-75
2022/09/27 13:12:11;;;;;;;6.03;0.95;;;21.10;43.20;;;;;;6041240;29;20071;-74
2022/09/27 13:15:22;;;;;;;7.60;0.93;;;20.90;43.40;;;;;;6052658;29;20040;-75
2022/09/27 13:18:36;;;;;;;6.20;1.00;;;20.60;43.90;;;;;;6042634;29;20040;-75
2022/09/27 13:21:50;;;;;;;5.97;0.80;;;20.50;44.60;;;;;;6058610;29;20048;-75
2022/09/27 13:25:50;;;;;;;4.07;0.80;;;20.30;45.20;;;;;;5994341;29;20068;-73
2022/09/27 13:29:24;;;;;;;1.95;0.95;;;20.10;45.80;;;;;;5955709;29;20385;-74
2022/09/27 13:32:27;;;;;;;5.40;0.70;;;19.90;46.50;;;;;;5965258;29;20042;-74
2022/09/27 13:35:35;;;;;;;6.18;1.25;;;19.90;47.10;;;;;;5967273;29;20035;-75
2022/09/27 13:39:09;;;;;;;4.20;1.10;;;19.90;47.20;;;;;;5991831;29;20053;-74
2022/09/27 13:42:38;;;;;;;4.88;1.00;;;20.00;47.20;;;;;;6028866;29;20036;-74
2022/09/27 13:45:54;;;;;;;1.33;0.60;;;20.10;46.60;;;;;;6024746;29;20383;-74
2022/09/27 13:49:13;;;;;;;4.18;1.00;;;20.30;46.30;;;;;;6011779;29;20085;-74
2022/09/27 13:52:56;;;;;;;3.03;0.80;;;20.40;46.20;;;;;;6029308;29;20041;-75
2022/09/27 13:55:59;;;;;;;3.33;0.80;;;20.70;45.90;;;;;;6029450;29;20045;-73
2022/09/27 13:59:41;;;;;;;1.88;0.63;;;20.80;45.40;;;;;;6013818;29;20405;-75
2022/09/27 14:03:11;;;;;;;6.47;0.65;;;20.90;45.30;;;;;;6080535;29;20052;-74
2022/09/27 14:06:23;;;;;;;4.13;0.50;;;20.90;45.20;;;;;;6136195;28;20062;-74
2022/09/27 14:09:28;;;;;;;2.72;0.63;;;21.00;44.50;;;;;;6155333;28;20402;-74
2022/09/27 14:12:40;;;;;;;5.18;0.73;;;21.20;43.50;;;;;;6143651;28;20097;-74
2022/09/27 14:15:46;;;;;;;3.08;0.80;;;21.40;42.20;;;;;;6156996;28;20046;-75
2022/09/27 14:18:56;;;;;;;2.55;0.50;;;21.60;41.50;;;;;;6161616;28;20058;-75
2022/09/27 14:22:22;;;;;;;0.93;0.40;;;21.50;41.30;;;;;;6153533;28;20113;-74
2022/09/27 14:25:31;;;;;;;1.75;0.60;;;21.40;41.50;;;;;;6145989;28;20072;-73
2022/09/27 14:28:40;;;;;;;3.78;1.02;;;21.30;41.50;;;;;;6162352;28;20127;-74
2022/09/27 14:32:03;;;;;;;1.88;0.70;;;21.30;41.60;;;;;;6144267;28;20036;-75
2022/09/27 14:38:47;;;;;;;2.05;0.80;;;21.30;41.00;;;;;;6158557;28;20043;-74
2022/09/27 14:42:15;;;;;;;1.70;0.50;;;21.40;40.90;;;;;;6157762;28;20038;-74
2022/09/27 14:45:36;;;;;;;1.20;0.50;;;21.50;40.70;;;;;;6144221;28;20038;-74
2022/09/27 14:48:39;;;;;;;2.10;0.70;;;21.70;40.30;;;;;;6172410;28;20054;-75
2022/09/27 14:51:42;;;;;;;1.30;0.57;;;21.80;39.80;;;;;;6155252;28;20523;-74
2022/09/27 14:54:45;;;;;;;5.85;0.88;;;22.00;39.60;;;;;;6157710;28;20108;-74
2022/09/27 14:57:51;;;;;;;3.35;0.68;;;22.00;39.30;;;;;;6159145;28;20035;-75
2022/09/27 15:00:53;;;;;;;1.13;0.70;;;21.90;39.30;;;;;;6155284;28;20068;-75
2022/09/27 15:03:56;;;;;;;1.00;0.63;;;21.90;39.60;;;;;;6144484;28;20070;-75
2022/09/27 15:07:01;;;;;;;1.77;0.60;;;21.80;39.90;;;;;;6162996;28;20039;-75
2022/09/27 15:10:02;;;;;;;3.40;0.30;;;21.70;40.10;;;;;;6144856;28;20038;-74
2022/09/27 15:13:06;;;;;;;1.70;0.90;;;21.60;40.00;;;;;;6142260;28;20047;-74
2022/09/27 15:16:16;;;;;;;1.20;0.57;;;21.50;40.10;;;;;;6149728;28;20066;-74
2022/09/27 15:19:25;;;;;;;3.10;0.70;;;21.30;40.30;;;;;;6150766;28;20050;-75
2022/09/27 15:22:32;;;;;;;1.80;0.77;;;21.20;40.60;;;;;;6153593;28;20031;-74
2022/09/27 15:25:41;;;;;;;3.35;0.77;;;21.10;40.90;;;;;;6155587;28;20476;-75
2022/09/27 15:28:48;;;;;;;0.95;0.75;;;21.00;41.10;;;;;;6155267;28;20079;-75
2022/09/27 15:32:16;;;;;;;7.70;1.17;;;21.00;41.30;;;;;;6154375;28;20051;-75
2022/09/27 15:35:23;;;;;;;3.50;0.70;;;20.90;41.40;;;;;;6161210;28;20062;-75
2022/09/27 15:38:46;;;;;;;2.05;0.73;;;20.90;41.40;;;;;;6157560;28;20047;-74
2022/09/27 15:42:07;;;;;;;6.65;3.47;;;20.90;41.50;;;;;;6143027;28;20031;-74
2022/09/27 15:45:34;;;;;;;3.33;1.23;;;20.90;41.50;;;;;;6145933;28;20501;-74
2022/09/27 15:48:36;;;;;;;2.60;0.80;;;20.90;41.60;;;;;;6149608;28;20485;-75
2022/09/27 15:51:41;;;;;;;1.92;0.70;;;20.80;41.50;;;;;;6145619;28;20030;-75
2022/09/27 15:54:42;;;;;;;2.55;0.73;;;20.80;41.60;;;;;;6111571;28;20031;-74
2022/09/27 15:57:47;;;;;;;4.10;1.08;;;20.80;41.70;;;;;;6154644;28;20438;-74
2022/09/27 16:01:04;;;;;;;1.73;0.60;;;20.70;42.00;;;;;;6161291;28;20065;-75
2022/09/27 16:04:08;;;;;;;3.83;0.85;;;20.60;42.40;;;;;;6135862;28;20130;-74
2022/09/27 16:07:10;;;;;;;4.32;0.90;;;20.50;42.60;;;;;;6157976;28;20035;-77
2022/09/27 16:10:18;;;;;;;6.97;2.15;;;20.50;42.80;;;;;;6161288;28;20056;-75
2022/09/27 16:13:20;;;;;;;6.13;1.13;;;20.50;43.00;;;;;;6142252;28;20462;-74
2022/09/27 16:16:21;;;;;;;2.20;0.88;;;20.40;43.10;;;;;;6162979;28;20055;-75
2022/09/27 16:19:22;;;;;;;6.03;1.45;;;20.40;43.30;;;;;;6121023;28;20072;-75
2022/09/27 16:22:25;;;;;;;1.77;0.60;;;20.40;43.40;;;;;;6164534;28;20097;-75
2022/09/27 16:25:27;;;;;;;3.65;1.00;;;20.30;43.30;;;;;;6160561;28;20117;-75
2022/09/27 16:28:28;;;;;;;4.93;1.35;;;20.30;43.20;;;;;;6164377;28;20098;-75
2022/09/27 16:31:29;;;;;;;2.22;1.10;;;20.30;43.20;;;;;;6132128;28;20101;-75
2022/09/27 16:34:30;;;;;;;2.97;1.38;;;20.20;43.20;;;;;;6162927;28;20031;-75
2022/09/27 16:37:33;;;;;;;6.63;1.50;;;20.20;43.40;;;;;;6164433;28;20439;-74
2022/09/27 16:40:35;;;;;;;4.63;1.40;;;20.10;43.60;;;;;;6162391;28;20211;-75
2022/09/27 16:43:36;;;;;;;3.65;1.67;;;20.00;44.00;;;;;;6154273;28;20376;-75
2022/09/27 16:46:44;;;;;;;6.53;1.95;;;20.00;44.60;;;;;;6157761;28;20035;-74
2022/09/27 16:53:05;;;;;;;2.55;1.10;;;19.90;46.00;;;;;;6157471;28;20046;-75
2022/09/27 16:56:06;;;;;;;6.65;1.13;;;19.80;46.60;;;;;;6157586;28;20043;-76
2022/09/27 16:59:07;;;;;;;4.38;1.15;;;19.70;46.70;;;;;;6157262;28;20139;-74